createdAt,value
2024-03-04T00:00:06.623Z,49.95
2024-03-04T00:02:35.879Z,50.55
2024-03-04T00:05:05.623Z,50.47
2024-03-04T00:07:34.621Z,50.59
2024-03-04T00:10:04.028Z,51.06
2024-03-04T00:12:33.234Z,51.18
2024-03-04T00:15:02.256Z,50.57
2024-03-04T00:17:34.931Z,50.38
2024-03-04T00:20:07.214Z,50.31
2024-03-04T00:22:36.247Z,50.19
2024-03-04T00:25:06.994Z,50.20
2024-03-04T00:27:35.651Z,50.18
2024-03-04T00:30:05.115Z,50.62
2024-03-04T00:32:35.244Z,50.36
2024-03-04T00:35:04.843Z,50.25
2024-03-04T00:37:33.495Z,50.19
2024-03-04T00:40:02.533Z,50.29
2024-03-04T00:42:31.190Z,50.45
2024-03-04T00:45:00.246Z,51.01
2024-03-04T00:47:28.973Z,51.51
2024-03-04T00:49:59.394Z,51.88
2024-03-04T00:52:28.185Z,51.68
2024-03-04T00:54:57.282Z,51.08
2024-03-04T00:57:25.972Z,51.59
2024-03-04T00:59:54.959Z,51.32
2024-03-04T01:02:23.579Z,51.96
2024-03-04T01:04:52.564Z,52.67
2024-03-04T01:07:22.722Z,52.37
2024-03-04T01:09:51.639Z,52.42
2024-03-04T01:12:20.260Z,51.87
2024-03-04T01:14:49.299Z,51.93
2024-03-04T01:17:18.767Z,52.20
2024-03-04T01:19:48.072Z,51.95
2024-03-04T01:22:18.786Z,51.86
2024-03-04T01:24:51.343Z,51.52
2024-03-04T01:27:21.203Z,51.09
2024-03-04T01:29:50.188Z,50.66
2024-03-04T01:32:19.096Z,50.43
2024-03-04T01:34:48.044Z,50.84
2024-03-04T01:37:16.708Z,50.55
2024-03-04T01:39:45.672Z,50.61
2024-03-04T01:42:15.719Z,50.41
2024-03-04T01:44:44.683Z,49.92
2024-03-04T01:47:19.342Z,50.19
2024-03-04T01:49:50.361Z,50.07
2024-03-04T01:52:19.527Z,50.42
2024-03-04T01:54:53.894Z,50.33
2024-03-04T01:57:23.955Z,49.90
2024-03-04T01:59:53.825Z,50.27
2024-03-04T02:02:22.932Z,49.89
2024-03-04T02:04:53.187Z,50.16
2024-03-04T02:07:21.885Z,49.97
2024-03-04T02:09:51.390Z,50.51
2024-03-04T02:12:20.768Z,50.21
2024-03-04T02:14:51.153Z,50.11
2024-03-04T02:17:20.103Z,50.11
2024-03-04T02:19:49.154Z,50.13
2024-03-04T02:22:19.761Z,51.07
2024-03-04T02:24:50.133Z,51.84
2024-03-04T02:27:18.793Z,52.41
2024-03-04T02:29:47.771Z,51.74
2024-03-04T02:32:17.872Z,52.14
2024-03-04T02:34:47.655Z,52.42
2024-03-04T02:37:16.365Z,53.70
2024-03-04T02:39:45.527Z,54.34
2024-03-04T02:42:15.583Z,54.72
2024-03-04T02:44:44.713Z,55.12
2024-03-04T02:47:13.484Z,54.47
2024-03-04T02:49:42.576Z,54.28
2024-03-04T02:52:11.392Z,54.69
2024-03-04T02:54:40.503Z,54.57
2024-03-04T02:57:09.212Z,54.78
2024-03-04T02:59:39.557Z,54.25
2024-03-04T03:02:08.225Z,54.36
2024-03-04T03:04:37.382Z,54.15
2024-03-04T03:07:06.607Z,53.96
2024-03-04T03:09:35.587Z,53.54
2024-03-04T03:12:04.268Z,53.64
2024-03-04T03:14:37.026Z,53.25
2024-03-04T03:17:08.147Z,53.77
2024-03-04T03:19:37.605Z,54.23
2024-03-04T03:22:06.345Z,54.61
2024-03-04T03:24:35.270Z,54.34
2024-03-04T03:27:03.964Z,55.10
2024-03-04T03:29:32.996Z,55.64
2024-03-04T03:32:01.630Z,55.92
2024-03-04T03:34:32.076Z,55.79
2024-03-04T03:37:00.807Z,55.68
2024-03-04T03:39:29.812Z,56.25
2024-03-04T03:41:58.448Z,56.42
2024-03-04T03:44:27.346Z,56.88
2024-03-04T03:46:55.995Z,57.16
2024-03-04T03:49:24.983Z,57.84
2024-03-04T03:51:55.116Z,58.05
2024-03-04T03:54:24.082Z,58.28
2024-03-04T03:56:52.746Z,58.40
2024-03-04T03:59:21.730Z,58.01
2024-03-04T04:01:50.412Z,58.22
2024-03-04T04:04:19.412Z,58.29
2024-03-04T04:06:48.012Z,58.67
2024-03-04T04:09:18.288Z,58.23
2024-03-04T04:11:47.039Z,58.66
2024-03-04T04:14:15.984Z,59.47
2024-03-04T04:16:44.642Z,58.56
2024-03-04T04:19:13.808Z,58.66
2024-03-04T04:21:42.814Z,58.77
2024-03-04T04:24:12.142Z,59.04
2024-03-04T04:26:42.131Z,58.90
2024-03-04T04:29:11.077Z,58.55
2024-03-04T04:31:39.992Z,58.26
2024-03-04T04:34:09.144Z,58.35
2024-03-04T04:36:37.788Z,58.97
2024-03-04T04:39:06.762Z,58.48
2024-03-04T04:41:36.461Z,59.08
2024-03-04T04:44:06.988Z,58.82
2024-03-04T04:46:35.781Z,58.93
2024-03-04T04:49:04.993Z,59.27
2024-03-04T04:51:33.914Z,58.88
2024-03-04T04:54:02.909Z,58.97
2024-03-04T04:56:31.722Z,59.25
2024-03-04T04:59:00.697Z,58.38
2024-03-04T05:01:31.512Z,58.10
2024-03-04T05:04:14.850Z,57.82
2024-03-04T05:06:49.248Z,58.71
2024-03-04T05:09:19.640Z,58.38
2024-03-04T05:11:48.245Z,58.73
2024-03-04T05:14:17.828Z,58.07
2024-03-04T05:16:48.813Z,58.28
2024-03-04T05:19:18.649Z,57.62
2024-03-04T05:21:47.393Z,58.43
2024-03-04T05:24:16.291Z,57.05
2024-03-04T05:26:45.463Z,57.66
2024-03-04T05:29:14.501Z,57.11
2024-03-04T05:31:58.313Z,56.50
2024-03-04T05:34:27.683Z,56.28
2024-03-04T05:36:58.079Z,56.84
2024-03-04T05:39:32.312Z,56.41
2024-03-04T05:42:01.278Z,56.33
2024-03-04T05:44:30.224Z,56.43
2024-03-04T05:47:00.419Z,55.86
2024-03-04T05:49:29.913Z,55.60
2024-03-04T05:52:00.434Z,55.78
2024-03-04T05:54:29.464Z,56.20
2024-03-04T05:56:58.091Z,55.07
2024-03-04T05:59:27.233Z,55.23
2024-03-04T06:01:55.933Z,54.79
2024-03-04T06:04:26.840Z,54.26
2024-03-04T06:06:55.581Z,54.42
2024-03-04T06:09:27.726Z,53.66
2024-03-04T06:11:59.423Z,53.50
2024-03-04T06:14:30.244Z,53.48
2024-03-04T06:16:58.946Z,53.29
2024-03-04T06:19:29.492Z,53.12
2024-03-04T06:22:07.502Z,52.75
2024-03-04T06:24:40.837Z,52.96
2024-03-04T06:27:09.667Z,52.07
2024-03-04T06:29:38.590Z,51.96
2024-03-04T06:32:09.165Z,52.05
2024-03-04T06:34:41.604Z,52.67
2024-03-04T06:37:10.370Z,52.42
2024-03-04T06:39:39.436Z,52.19
2024-03-04T06:42:08.318Z,52.28
2024-03-04T06:44:37.629Z,52.63
2024-03-04T06:47:06.915Z,52.76
2024-03-04T06:49:36.392Z,52.32
2024-03-04T06:52:06.628Z,52.46
2024-03-04T06:54:35.679Z,52.85
2024-03-04T06:57:04.463Z,52.26
2024-03-04T06:59:33.472Z,51.53
2024-03-04T07:02:02.160Z,52.20
2024-03-04T07:04:31.255Z,51.44
2024-03-04T07:07:00.068Z,51.28
2024-03-04T07:09:30.644Z,51.14
2024-03-04T07:11:59.959Z,51.27
2024-03-04T07:14:29.097Z,51.04
2024-03-04T07:16:57.746Z,51.22
2024-03-04T07:19:26.794Z,50.75
2024-03-04T07:21:55.490Z,51.32
2024-03-04T07:24:25.191Z,50.98
2024-03-04T07:26:55.361Z,50.70
2024-03-04T07:29:31.632Z,50.92
2024-03-04T07:32:08.118Z,50.72
2024-03-04T07:34:37.130Z,50.53
2024-03-04T07:37:06.199Z,50.04
2024-03-04T07:39:36.108Z,49.85
2024-03-04T07:42:06.672Z,49.98
2024-03-04T07:44:40.209Z,49.88
2024-03-04T07:47:08.878Z,50.53
2024-03-04T07:49:37.863Z,50.02
2024-03-04T07:52:07.307Z,50.36
2024-03-04T07:54:36.484Z,50.09
2024-03-04T07:57:13.895Z,49.76
2024-03-04T07:59:46.694Z,49.16
2024-03-04T08:02:15.458Z,48.56
2024-03-04T08:04:45.327Z,48.22
2024-03-04T08:07:14.661Z,47.73
2024-03-04T08:09:43.754Z,47.74
2024-03-04T08:12:16.154Z,46.97
2024-03-04T08:14:45.209Z,47.22
2024-03-04T08:17:17.029Z,47.08
2024-03-04T08:19:46.234Z,46.17
2024-03-04T08:22:15.125Z,45.80
2024-03-04T08:24:44.218Z,46.04
2024-03-04T08:27:14.725Z,45.69
2024-03-04T08:29:44.111Z,45.15
2024-03-04T08:32:12.811Z,45.26
2024-03-04T08:34:44.417Z,44.95
2024-03-04T08:37:14.873Z,45.06
2024-03-04T08:39:43.915Z,45.58
2024-03-04T08:42:13.015Z,44.81
2024-03-04T08:44:43.413Z,44.33
2024-03-04T08:47:12.209Z,44.02
2024-03-04T08:49:41.176Z,43.78
2024-03-04T08:52:09.841Z,43.11
2024-03-04T08:54:38.874Z,44.16
2024-03-04T08:57:07.768Z,44.46
2024-03-04T08:59:36.713Z,43.67
2024-03-04T09:02:08.538Z,43.60
2024-03-04T09:04:37.828Z,42.77
2024-03-04T09:07:06.867Z,43.01
2024-03-04T09:09:35.792Z,42.26
2024-03-04T09:12:05.212Z,42.09
2024-03-04T09:14:34.223Z,41.66
2024-03-04T09:17:03.216Z,41.76
2024-03-04T09:19:34.150Z,42.08
2024-03-04T09:22:05.188Z,41.54
2024-03-04T09:24:34.333Z,40.97
2024-03-04T09:27:03.495Z,40.90
2024-03-04T09:29:32.528Z,40.66
2024-03-04T09:32:01.344Z,40.42
2024-03-04T09:34:30.432Z,40.33
2024-03-04T09:37:02.511Z,39.77
2024-03-04T09:39:31.581Z,39.58
2024-03-04T09:42:01.133Z,38.98
2024-03-04T09:44:31.401Z,38.74
2024-03-04T09:47:00.247Z,38.71
2024-03-04T09:49:31.169Z,37.97
2024-03-04T09:52:04.417Z,38.39
2024-03-04T09:54:34.320Z,38.18
2024-03-04T09:57:03.148Z,38.00
2024-03-04T09:59:33.796Z,37.99
2024-03-04T10:02:03.202Z,37.83
2024-03-04T10:04:33.219Z,37.79
2024-03-04T10:07:05.871Z,38.12
2024-03-04T10:09:35.436Z,37.80
2024-03-04T10:12:04.897Z,37.87
2024-03-04T10:14:34.124Z,37.56
2024-03-04T10:17:02.945Z,37.60
2024-03-04T10:19:32.022Z,37.74
2024-03-04T10:22:00.852Z,37.27
2024-03-04T10:24:31.317Z,37.00
2024-03-04T10:27:00.802Z,36.76
2024-03-04T10:29:29.828Z,36.36
2024-03-04T10:31:58.517Z,36.52
2024-03-04T10:34:27.491Z,36.20
2024-03-04T10:36:59.238Z,36.00
2024-03-04T10:39:31.246Z,35.86
2024-03-04T10:42:04.201Z,35.88
2024-03-04T10:44:33.686Z,35.57
2024-03-04T10:47:04.363Z,35.32
2024-03-04T10:49:33.913Z,35.16
2024-03-04T10:52:12.821Z,35.06
2024-03-04T10:54:43.468Z,35.21
2024-03-04T10:57:27.979Z,34.80
2024-03-04T10:59:59.196Z,34.67
2024-03-04T11:02:43.939Z,34.71
2024-03-04T11:05:13.484Z,34.85
2024-03-04T11:07:45.474Z,35.12
2024-03-04T11:10:26.145Z,34.77
2024-03-04T11:13:05.486Z,34.90
2024-03-04T11:15:39.360Z,35.12
2024-03-04T11:18:16.597Z,35.45
2024-03-04T11:20:47.723Z,35.45
2024-03-04T11:23:17.369Z,35.22
2024-03-04T11:25:46.903Z,35.40
2024-03-04T11:28:20.630Z,35.17
2024-03-04T11:30:51.808Z,34.98
2024-03-04T11:33:41.858Z,34.57
2024-03-04T11:36:12.138Z,34.44
2024-03-04T11:38:45.624Z,34.33
2024-03-04T11:41:15.350Z,34.09
2024-03-04T11:43:46.840Z,33.53
2024-03-04T11:46:16.800Z,33.76
2024-03-04T11:48:47.688Z,33.63
2024-03-04T11:51:37.263Z,33.63
2024-03-04T11:54:07.317Z,33.34
2024-03-04T11:56:39.211Z,32.79
2024-03-04T11:59:13.417Z,32.37
2024-03-04T12:01:42.791Z,32.21
2024-03-04T12:04:11.598Z,32.15
2024-03-04T12:06:41.346Z,32.03
2024-03-04T12:09:29.010Z,32.17
2024-03-04T12:12:00.878Z,31.96
2024-03-04T12:14:31.363Z,31.85
2024-03-04T12:17:01.336Z,31.89
2024-03-04T12:19:30.336Z,32.19
2024-03-04T12:21:59.356Z,32.23
2024-03-04T12:24:27.989Z,32.36
2024-03-04T12:26:57.201Z,32.49
2024-03-04T12:29:27.343Z,32.35
2024-03-04T12:32:01.464Z,32.38
2024-03-04T12:34:31.204Z,32.41
2024-03-04T12:37:01.115Z,32.68
2024-03-04T12:39:30.011Z,32.90
2024-03-04T12:41:59.029Z,32.86
2024-03-04T12:44:28.871Z,32.95
2024-03-04T12:46:59.200Z,33.20
2024-03-04T12:49:30.685Z,33.07
2024-03-04T12:52:04.988Z,32.95
2024-03-04T12:54:36.486Z,33.32
2024-03-04T12:57:05.967Z,33.04
2024-03-04T12:59:34.571Z,33.03
2024-03-04T13:02:05.406Z,33.07
2024-03-04T13:04:34.092Z,33.19
2024-03-04T13:07:03.195Z,32.96
2024-03-04T13:09:31.871Z,32.86
2024-03-04T13:12:00.896Z,33.24
2024-03-04T13:14:34.259Z,33.38
2024-03-04T13:17:05.164Z,33.45
2024-03-04T13:19:34.723Z,33.18
2024-03-04T13:22:03.835Z,32.80
2024-03-04T13:24:32.514Z,32.94
2024-03-04T13:27:01.540Z,32.65
2024-03-04T13:29:32.663Z,32.69
2024-03-04T13:32:02.957Z,32.86
2024-03-04T13:34:33.066Z,33.09
2024-03-04T13:37:02.258Z,33.30
2024-03-04T13:39:30.905Z,33.08
2024-03-04T13:42:00.770Z,32.58
2024-03-04T13:44:29.532Z,33.03
2024-03-04T13:46:58.614Z,32.91
2024-03-04T13:49:27.288Z,32.94
2024-03-04T13:51:57.682Z,32.83
2024-03-04T13:54:27.027Z,33.11
2024-03-04T13:56:58.769Z,33.29
2024-03-04T13:59:29.885Z,33.17
2024-03-04T14:02:00.281Z,33.40
2024-03-04T14:04:29.031Z,33.26
2024-03-04T14:06:59.858Z,32.88
2024-03-04T14:09:30.424Z,33.15
2024-03-04T14:11:59.359Z,33.33
2024-03-04T14:14:28.780Z,32.86
2024-03-04T14:16:57.910Z,32.88
2024-03-04T14:19:26.616Z,32.69
2024-03-04T14:21:55.579Z,32.40
2024-03-04T14:24:25.639Z,32.16
2024-03-04T14:26:54.742Z,32.10
2024-03-04T14:29:23.425Z,32.13
2024-03-04T14:31:53.507Z,32.23
2024-03-04T14:34:22.913Z,32.30
2024-03-04T14:36:54.046Z,32.18
2024-03-04T14:39:22.690Z,32.29
2024-03-04T14:41:52.995Z,32.54
2024-03-04T14:44:22.172Z,31.77
2024-03-04T14:46:51.201Z,32.22
2024-03-04T14:49:19.837Z,32.93
2024-03-04T14:51:48.752Z,33.14
2024-03-04T14:54:17.410Z,33.26
2024-03-04T14:56:47.212Z,33.45
2024-03-04T14:59:17.254Z,33.55
2024-03-04T15:01:46.279Z,33.49
2024-03-04T15:04:15.020Z,33.42
2024-03-04T15:06:45.100Z,33.49
2024-03-04T15:09:13.784Z,33.83
2024-03-04T15:11:43.751Z,33.78
2024-03-04T15:14:12.448Z,33.97
2024-03-04T15:16:49.384Z,33.92
2024-03-04T15:19:18.325Z,33.85
2024-03-04T15:21:49.171Z,33.97
2024-03-04T15:24:17.815Z,34.03
2024-03-04T15:26:46.747Z,34.49
2024-03-04T15:29:18.400Z,34.99
2024-03-04T15:31:50.657Z,34.90
2024-03-04T15:34:19.491Z,34.95
2024-03-04T15:36:50.957Z,34.95
2024-03-04T15:39:20.185Z,34.98
2024-03-04T15:41:49.264Z,35.02
2024-03-04T15:44:18.143Z,35.71
2024-03-04T15:46:49.470Z,35.70
2024-03-04T15:49:21.080Z,35.83
2024-03-04T15:51:50.218Z,35.51
2024-03-04T15:54:18.894Z,35.71
2024-03-04T15:56:47.768Z,35.79
2024-03-04T15:59:16.681Z,36.21
2024-03-04T16:01:45.778Z,36.54
2024-03-04T16:04:14.547Z,36.67
2024-03-04T16:06:45.407Z,36.77
2024-03-04T16:09:14.213Z,36.93
2024-03-04T16:11:43.367Z,37.18
2024-03-04T16:14:14.465Z,37.77
2024-03-04T16:16:43.509Z,37.30
2024-03-04T16:19:12.250Z,37.37
2024-03-04T16:21:41.267Z,38.19
2024-03-04T16:24:11.312Z,38.12
2024-03-04T16:26:40.258Z,37.87
2024-03-04T16:29:08.915Z,37.61
2024-03-04T16:31:40.901Z,37.67
2024-03-04T16:34:09.629Z,37.82
2024-03-04T16:36:38.614Z,38.35
2024-03-04T16:39:14.646Z,38.10
2024-03-04T16:41:45.703Z,38.53
2024-03-04T16:44:15.109Z,38.49
2024-03-04T16:46:44.311Z,38.79
2024-03-04T16:49:14.161Z,38.72
2024-03-04T16:51:48.794Z,39.12
2024-03-04T16:54:18.085Z,39.56
2024-03-04T16:56:49.045Z,39.64
2024-03-04T16:59:17.807Z,39.97
2024-03-04T17:01:49.680Z,40.66
2024-03-04T17:04:18.997Z,40.12
2024-03-04T17:06:48.127Z,40.69
2024-03-04T17:09:19.317Z,40.79
2024-03-04T17:11:49.808Z,40.91
2024-03-04T17:14:18.492Z,40.62
2024-03-04T17:16:48.269Z,41.16
2024-03-04T17:19:20.792Z,41.06
2024-03-04T17:21:49.850Z,41.07
2024-03-04T17:24:19.144Z,41.04
2024-03-04T17:26:49.590Z,41.56
2024-03-04T17:29:18.283Z,41.33
2024-03-04T17:31:47.697Z,41.49
2024-03-04T17:34:16.389Z,41.96
2024-03-04T17:36:47.013Z,41.86
2024-03-04T17:39:15.790Z,42.32
2024-03-04T17:41:44.833Z,41.71
2024-03-04T17:44:14.835Z,41.83
2024-03-04T17:46:44.830Z,41.90
2024-03-04T17:49:13.960Z,42.31
2024-03-04T17:51:43.360Z,42.75
2024-03-04T17:54:12.565Z,42.14
2024-03-04T17:56:43.469Z,42.35
2024-03-04T17:59:14.914Z,42.59
2024-03-04T18:01:45.057Z,42.44
2024-03-04T18:04:14.128Z,42.70
2024-03-04T18:06:43.068Z,42.74
2024-03-04T18:09:11.758Z,43.19
2024-03-04T18:11:41.276Z,43.69
2024-03-04T18:14:10.064Z,44.02
2024-03-04T18:16:40.447Z,44.18
2024-03-04T18:19:09.184Z,44.36
2024-03-04T18:21:38.323Z,44.82
2024-03-04T18:24:07.915Z,44.91
2024-03-04T18:26:37.170Z,45.59
2024-03-04T18:29:06.003Z,45.40
2024-03-04T18:31:35.444Z,46.03
2024-03-04T18:34:05.753Z,46.76
2024-03-04T18:36:36.021Z,46.60
2024-03-04T18:39:05.088Z,46.84
2024-03-04T18:41:34.143Z,46.79
2024-03-04T18:44:03.976Z,47.08
2024-03-04T18:46:33.432Z,47.28
2024-03-04T18:49:02.175Z,47.58
2024-03-04T18:51:32.548Z,47.73
2024-03-04T18:54:01.172Z,47.79
2024-03-04T18:56:30.305Z,47.73
2024-03-04T18:58:58.943Z,47.96
2024-03-04T19:01:30.637Z,47.67
2024-03-04T19:03:59.400Z,47.92
2024-03-04T19:06:28.386Z,48.01
2024-03-04T19:08:58.504Z,47.92
2024-03-04T19:11:27.561Z,48.31
2024-03-04T19:13:56.232Z,48.86
2024-03-04T19:16:25.252Z,48.56
2024-03-04T19:18:54.061Z,49.02
2024-03-04T19:21:26.328Z,49.38
2024-03-04T19:23:55.811Z,49.35
2024-03-04T19:26:26.882Z,49.37
2024-03-04T19:28:55.555Z,49.44
2024-03-04T19:31:25.567Z,50.27
2024-03-04T19:33:54.685Z,50.08
2024-03-04T19:36:24.418Z,49.85
2024-03-04T19:38:53.116Z,50.10
2024-03-04T19:41:23.091Z,50.35
2024-03-04T19:43:53.877Z,50.27
2024-03-04T19:46:24.162Z,50.37
2024-03-04T19:48:54.546Z,50.25
2024-03-04T19:51:24.097Z,50.47
2024-03-04T19:53:54.768Z,50.61
2024-03-04T19:56:24.033Z,51.14
2024-03-04T19:58:54.206Z,50.77
2024-03-04T20:01:23.552Z,50.95
2024-03-04T20:03:52.322Z,51.36
2024-03-04T20:06:21.343Z,50.99
2024-03-04T20:08:51.244Z,50.96
2024-03-04T20:11:20.580Z,50.98
2024-03-04T20:13:50.138Z,51.54
2024-03-04T20:16:22.920Z,51.73
2024-03-04T20:18:51.979Z,51.84
2024-03-04T20:21:21.156Z,51.37
2024-03-04T20:23:50.224Z,51.47
2024-03-04T20:26:19.611Z,51.32
2024-03-04T20:28:48.520Z,51.18
2024-03-04T20:31:21.476Z,51.50
2024-03-04T20:33:51.099Z,51.43
2024-03-04T20:36:20.585Z,51.71
2024-03-04T20:38:49.280Z,51.27
2024-03-04T20:41:18.305Z,51.13
2024-03-04T20:43:47.128Z,51.07
2024-03-04T20:46:16.230Z,51.26
2024-03-04T20:48:46.283Z,51.85
2024-03-04T20:51:15.237Z,51.27
2024-03-04T20:53:43.889Z,51.12
2024-03-04T20:56:12.809Z,51.37
2024-03-04T20:58:41.412Z,50.75
2024-03-04T21:01:10.466Z,50.82
2024-03-04T21:03:39.932Z,50.70
2024-03-04T21:06:11.501Z,50.43
2024-03-04T21:08:40.255Z,50.48
2024-03-04T21:11:09.401Z,50.10
2024-03-04T21:13:38.127Z,49.86
2024-03-04T21:16:07.760Z,50.06
2024-03-04T21:18:36.476Z,49.90
2024-03-04T21:21:05.888Z,49.92
2024-03-04T21:23:36.043Z,50.30
2024-03-04T21:26:06.108Z,49.87
2024-03-04T21:28:34.862Z,50.36
2024-03-04T21:31:05.038Z,49.79
2024-03-04T21:33:33.782Z,49.48
2024-03-04T21:36:02.785Z,49.27
2024-03-04T21:38:33.313Z,49.24
2024-03-04T21:41:04.513Z,49.38
2024-03-04T21:43:33.206Z,49.16
2024-03-04T21:46:03.551Z,49.03
2024-03-04T21:48:33.427Z,49.33
2024-03-04T21:51:03.250Z,49.01
2024-03-04T21:53:32.259Z,49.31
2024-03-04T21:56:01.540Z,49.23
2024-03-04T21:58:31.707Z,49.21
2024-03-04T22:01:00.668Z,49.24
2024-03-04T22:03:29.345Z,49.22
2024-03-04T22:05:58.447Z,49.31
2024-03-04T22:08:27.238Z,49.26
2024-03-04T22:10:57.028Z,49.44
2024-03-04T22:13:25.913Z,49.56
2024-03-04T22:15:56.618Z,49.57
2024-03-04T22:18:25.261Z,49.46
2024-03-04T22:20:54.309Z,49.96
2024-03-04T22:23:22.920Z,50.07
2024-03-04T22:25:51.970Z,49.81
2024-03-04T22:28:20.760Z,49.80
2024-03-04T22:30:52.596Z,49.88
2024-03-04T22:33:22.694Z,50.37
2024-03-04T22:35:51.599Z,50.57
2024-03-04T22:38:20.411Z,50.87
2024-03-04T22:40:50.858Z,50.78
2024-03-04T22:43:20.416Z,50.85
2024-03-04T22:45:49.326Z,51.22
2024-03-04T22:48:19.973Z,51.53
2024-03-04T22:50:50.490Z,51.36
2024-03-04T22:53:19.112Z,51.75
2024-03-04T22:55:48.214Z,51.26
2024-03-04T22:58:17.027Z,50.77
2024-03-04T23:00:57.415Z,51.01
2024-03-04T23:03:27.093Z,50.71
2024-03-04T23:05:58.439Z,51.49
2024-03-04T23:08:27.428Z,51.51
2024-03-04T23:10:56.381Z,51.51
2024-03-04T23:13:25.172Z,51.29
2024-03-04T23:15:54.212Z,51.93
2024-03-04T23:18:22.863Z,51.79
2024-03-04T23:20:51.833Z,51.45
2024-03-04T23:23:22.327Z,51.21
2024-03-04T23:25:51.401Z,51.15
2024-03-04T23:28:20.423Z,51.45
2024-03-04T23:30:50.405Z,51.45
2024-03-04T23:33:19.168Z,51.09
2024-03-04T23:35:48.716Z,51.28
2024-03-04T23:38:22.064Z,51.17
2024-03-04T23:40:54.724Z,51.30
2024-03-04T23:43:23.798Z,51.61
2024-03-04T23:45:53.136Z,51.26
2024-03-04T23:48:22.208Z,51.48
2024-03-04T23:50:51.111Z,52.25
2024-03-04T23:53:20.067Z,51.87
2024-03-04T23:55:48.994Z,52.47
2024-03-04T23:58:19.363Z,52.08
